createdAt,value
2023-05-25T00:02:40.099Z,102827.91
2023-05-25T00:05:27.705Z,102824.44
2023-05-25T00:08:13.004Z,102819.19
2023-05-25T00:10:58.909Z,102821.84
2023-05-25T00:13:44.247Z,102815.72
2023-05-25T00:16:29.729Z,102813.06
2023-05-25T00:19:15.699Z,102816.47
2023-05-25T00:22:03.878Z,102812.00
2023-05-25T00:24:49.456Z,102811.84
2023-05-25T00:27:35.054Z,102813.34
2023-05-25T00:30:20.570Z,102809.66
2023-05-25T00:33:06.508Z,102821.81
2023-05-25T00:35:54.247Z,102818.19
2023-05-25T00:38:43.393Z,102813.72
2023-05-25T00:41:28.966Z,102818.91
2023-05-25T00:44:16.375Z,102823.28
2023-05-25T00:47:07.223Z,102819.84
2023-05-25T00:49:54.999Z,102821.63
2023-05-25T00:52:40.686Z,102826.97
2023-05-25T00:55:32.811Z,102831.31
2023-05-25T00:58:24.521Z,102832.22
2023-05-25T01:01:11.981Z,102838.25
2023-05-25T01:04:02.451Z,102833.75
2023-05-25T01:06:52.818Z,102834.50
2023-05-25T01:09:41.185Z,102834.28
2023-05-25T01:12:30.701Z,102840.28
2023-05-25T01:15:16.168Z,102833.06
2023-05-25T01:18:02.070Z,102831.97
2023-05-25T01:21:09.855Z,102832.72
2023-05-25T01:24:06.957Z,102837.81
2023-05-25T01:26:59.336Z,102838.63
2023-05-25T01:29:49.564Z,102839.41
2023-05-25T01:32:37.508Z,102845.34
2023-05-25T01:35:24.745Z,102845.19
2023-05-25T01:38:11.034Z,102846.78
2023-05-25T01:41:03.095Z,102858.00
2023-05-25T01:43:57.938Z,102854.34
2023-05-25T01:47:08.150Z,102856.78
2023-05-25T01:53:37.505Z,102859.84
2023-05-25T01:56:26.964Z,102863.16
2023-05-25T01:59:19.465Z,102866.63
2023-05-25T02:02:08.570Z,102870.84
2023-05-25T02:04:57.936Z,102877.59
2023-05-25T02:07:43.583Z,102879.22
2023-05-25T02:10:35.576Z,102879.91
2023-05-25T02:13:21.429Z,102880.63
2023-05-25T02:16:08.035Z,102870.88
2023-05-25T02:18:53.813Z,102877.63
2023-05-25T02:21:44.661Z,102890.50
2023-05-25T02:24:29.994Z,102889.50
2023-05-25T02:27:19.028Z,102884.78
2023-05-25T02:30:08.038Z,102899.50
2023-05-25T02:32:54.132Z,102900.28
2023-05-25T02:35:39.850Z,102891.44
2023-05-25T02:38:26.595Z,102895.59
2023-05-25T02:41:12.534Z,102891.03
2023-05-25T02:43:59.429Z,102899.69
2023-05-25T02:46:45.767Z,102894.28
2023-05-25T02:49:31.285Z,102898.53
2023-05-25T02:52:16.691Z,102894.13
2023-05-25T02:55:03.597Z,102898.34
2023-05-25T02:57:55.006Z,102899.91
2023-05-25T03:01:06.296Z,102901.44
2023-05-25T03:03:54.832Z,102907.41
2023-05-25T03:10:46.174Z,102920.97
2023-05-25T03:13:46.436Z,102918.25
2023-05-25T03:16:36.598Z,102916.38
2023-05-25T03:19:31.333Z,102922.41
2023-05-25T03:22:28.000Z,102920.66
2023-05-25T03:25:13.242Z,102923.16
2023-05-25T03:27:59.160Z,102922.09
2023-05-25T03:30:44.528Z,102928.03
2023-05-25T03:33:30.169Z,102926.91
2023-05-25T03:36:17.380Z,102926.81
2023-05-25T03:39:03.384Z,102934.47
2023-05-25T03:41:49.321Z,102938.66
2023-05-25T03:44:35.666Z,102933.34
2023-05-25T03:47:21.059Z,102931.44
2023-05-25T03:50:07.720Z,102923.44
2023-05-25T03:52:53.839Z,102931.19
2023-05-25T03:55:39.324Z,102931.03
2023-05-25T03:58:38.262Z,102937.00
2023-05-25T04:01:26.542Z,102939.50
2023-05-25T04:04:20.858Z,102939.41
2023-05-25T04:07:06.482Z,102943.63
2023-05-25T04:09:54.036Z,102937.50
2023-05-25T04:12:39.492Z,102941.78
2023-05-25T04:15:25.126Z,102951.25
2023-05-25T04:18:22.769Z,102948.56
2023-05-25T04:21:08.720Z,102950.25
2023-05-25T04:23:54.088Z,102941.50
2023-05-25T04:27:05.517Z,102946.56
2023-05-25T04:29:51.482Z,102945.69
2023-05-25T04:32:57.685Z,102953.44
2023-05-25T04:36:18.411Z,102957.72
2023-05-25T04:39:05.883Z,102957.72
2023-05-25T04:41:57.359Z,102959.31
2023-05-25T04:44:47.693Z,102965.41
2023-05-25T04:47:34.896Z,102964.53
2023-05-25T04:50:20.682Z,102964.53
2023-05-25T04:53:06.997Z,102970.59
2023-05-25T04:55:52.885Z,102972.28
2023-05-25T04:58:38.441Z,102972.28
2023-05-25T05:01:26.525Z,102974.00
2023-05-25T05:04:16.707Z,102974.88
2023-05-25T05:07:05.932Z,102974.81
2023-05-25T05:09:51.302Z,102967.00
2023-05-25T05:12:36.750Z,102978.38
2023-05-25T05:15:23.333Z,102974.13
2023-05-25T05:18:09.811Z,102970.59
2023-05-25T05:20:55.811Z,102973.25
2023-05-25T05:23:45.195Z,102979.34
2023-05-25T05:26:38.485Z,102981.22
2023-05-25T05:29:34.675Z,102984.72
2023-05-25T05:32:19.972Z,102978.75
2023-05-25T05:35:05.920Z,102977.84
2023-05-25T05:37:59.370Z,102975.38
2023-05-25T05:40:46.067Z,102981.53
2023-05-25T05:43:31.986Z,102980.00
2023-05-25T05:46:17.462Z,102968.78
2023-05-25T05:49:03.426Z,102967.94
2023-05-25T05:51:49.225Z,102972.47
2023-05-25T05:54:34.537Z,102979.56
2023-05-25T05:57:24.924Z,102977.13
2023-05-25T06:00:11.142Z,102976.41
2023-05-25T06:03:02.430Z,102976.53
2023-05-25T06:05:49.772Z,102973.22
2023-05-25T06:08:37.615Z,102972.34
2023-05-25T06:11:23.158Z,102973.44
2023-05-25T06:14:08.604Z,102982.38
2023-05-25T06:16:54.958Z,102984.19
2023-05-25T06:19:43.140Z,102980.91
2023-05-25T06:22:29.056Z,102991.56
2023-05-25T06:25:16.647Z,102990.75
2023-05-25T06:28:02.814Z,102989.09
2023-05-25T06:30:48.461Z,102990.03
2023-05-25T06:33:33.716Z,102993.72
2023-05-25T06:36:19.178Z,103003.38
2023-05-25T06:39:04.624Z,102994.75
2023-05-25T06:41:51.197Z,102995.72
2023-05-25T06:44:45.750Z,103008.91
2023-05-25T06:47:31.369Z,103008.97
2023-05-25T06:50:18.219Z,102997.97
2023-05-25T06:53:04.372Z,103004.19
2023-05-25T06:55:49.978Z,103003.44
2023-05-25T06:58:35.395Z,103002.84
2023-05-25T07:01:20.839Z,103005.75
2023-05-25T07:04:06.275Z,103006.97
2023-05-25T07:06:52.771Z,103018.59
2023-05-25T07:09:38.479Z,103018.84
2023-05-25T07:12:24.108Z,103015.53
2023-05-25T07:15:10.728Z,103013.09
2023-05-25T07:17:57.459Z,103015.03
2023-05-25T07:20:44.026Z,103006.56
2023-05-25T07:23:29.856Z,103014.44
2023-05-25T07:26:15.828Z,103017.16
2023-05-25T07:29:01.462Z,103015.47
2023-05-25T07:31:47.020Z,103013.06
2023-05-25T07:34:34.325Z,103007.19
2023-05-25T07:37:19.968Z,103005.59
2023-05-25T07:40:06.595Z,102997.00
2023-05-25T07:42:52.037Z,103008.56
2023-05-25T07:45:37.495Z,103013.03
2023-05-25T07:48:23.027Z,103003.63
2023-05-25T07:51:08.565Z,102995.13
2023-05-25T07:53:55.409Z,103007.66
2023-05-25T07:56:41.026Z,103001.66
2023-05-25T07:59:26.614Z,102999.34
2023-05-25T08:02:12.237Z,103009.13
2023-05-25T08:04:57.588Z,102998.84
2023-05-25T08:07:43.188Z,103004.41
2023-05-25T08:10:32.320Z,103005.53
2023-05-25T08:13:17.801Z,103007.44
2023-05-25T08:16:03.319Z,103017.16
2023-05-25T08:18:48.910Z,103011.09
2023-05-25T08:21:35.247Z,103006.88
2023-05-25T08:24:20.866Z,103011.59
2023-05-25T08:27:06.608Z,103011.09
2023-05-25T08:29:52.373Z,103008.56
2023-05-25T08:32:37.931Z,103004.19
2023-05-25T08:35:23.145Z,103005.16
2023-05-25T08:38:09.353Z,103008.69
2023-05-25T08:41:23.878Z,103008.75
2023-05-25T08:44:10.534Z,103009.72
2023-05-25T08:46:57.300Z,103014.41
2023-05-25T08:49:45.254Z,103010.94
2023-05-25T08:52:34.370Z,103009.47
2023-05-25T08:55:23.874Z,103010.34
2023-05-25T08:58:16.486Z,103016.53
2023-05-25T09:01:07.582Z,103014.94
2023-05-25T09:03:55.239Z,103007.16
2023-05-25T09:06:41.193Z,103009.06
2023-05-25T09:09:27.347Z,103003.91
2023-05-25T09:12:14.331Z,103008.34
2023-05-25T09:14:59.907Z,103006.84
2023-05-25T09:17:45.568Z,102995.91
2023-05-25T09:20:32.113Z,103008.34
2023-05-25T09:23:17.832Z,103009.22
2023-05-25T09:26:03.566Z,103014.50
2023-05-25T09:28:49.322Z,103006.72
2023-05-25T09:31:35.034Z,103008.63
2023-05-25T09:34:21.013Z,103004.53
2023-05-25T09:37:15.135Z,102998.56
2023-05-25T09:40:00.909Z,102999.38
2023-05-25T09:42:46.390Z,103001.19
2023-05-25T09:45:32.099Z,103002.22
2023-05-25T09:48:18.160Z,102998.84
2023-05-25T09:51:03.697Z,103003.50
2023-05-25T09:53:49.445Z,102993.25
2023-05-25T09:56:35.055Z,102998.63
2023-05-25T09:59:22.978Z,103002.34
2023-05-25T10:02:09.040Z,103004.88
2023-05-25T10:04:54.531Z,102999.69
2023-05-25T10:07:41.913Z,102994.50
2023-05-25T10:10:28.662Z,103001.53
2023-05-25T10:13:15.450Z,103000.91
2023-05-25T10:16:02.940Z,103007.97
2023-05-25T10:18:54.820Z,103000.16
2023-05-25T10:21:42.210Z,103002.06
2023-05-25T10:24:55.083Z,103002.25
2023-05-25T10:28:03.606Z,103002.38
2023-05-25T10:30:51.789Z,103006.78
2023-05-25T10:33:37.764Z,103003.53
2023-05-25T10:36:25.440Z,103011.69
2023-05-25T10:39:11.322Z,103009.78
2023-05-25T10:41:57.352Z,103007.97
2023-05-25T10:44:43.116Z,103023.09
2023-05-25T10:47:28.899Z,103013.47
2023-05-25T10:50:23.147Z,103015.28
2023-05-25T10:53:12.864Z,103005.69
2023-05-25T10:56:02.502Z,103011.19
2023-05-25T10:58:48.317Z,103002.50
2023-05-25T11:01:51.507Z,103003.44
2023-05-25T11:04:37.925Z,103002.72
2023-05-25T11:07:23.619Z,103005.47
2023-05-25T11:10:08.923Z,103004.56
2023-05-25T11:12:54.222Z,103005.38
2023-05-25T11:15:40.210Z,102990.50
2023-05-25T11:18:38.097Z,102993.31
2023-05-25T11:21:23.579Z,102987.28
2023-05-25T11:24:13.327Z,102985.63
2023-05-25T11:27:01.620Z,102984.91
2023-05-25T11:29:51.178Z,102981.38
2023-05-25T11:32:39.902Z,102983.28
2023-05-25T11:35:26.813Z,102985.16
2023-05-25T11:38:12.792Z,102987.09
2023-05-25T11:40:58.531Z,102986.34
2023-05-25T11:43:46.363Z,102986.34
2023-05-25T11:46:33.268Z,102989.94
2023-05-25T11:49:21.811Z,102979.47
2023-05-25T11:52:08.309Z,102975.97
2023-05-25T11:54:53.600Z,102983.94
2023-05-25T11:57:40.467Z,102985.72
2023-05-25T12:00:27.935Z,102971.59
2023-05-25T12:03:32.236Z,102978.66
2023-05-25T12:06:31.721Z,102978.56
2023-05-25T12:09:24.330Z,102980.16
2023-05-25T12:12:09.960Z,102973.03
2023-05-25T12:14:57.048Z,102983.72
2023-05-25T12:17:44.087Z,102981.97
2023-05-25T12:20:29.513Z,102973.97
2023-05-25T12:23:15.185Z,102977.34
2023-05-25T12:26:12.082Z,102969.31
2023-05-25T12:29:04.503Z,102975.38
2023-05-25T12:31:49.864Z,102964.59
2023-05-25T12:34:35.482Z,102977.06
2023-05-25T12:37:22.480Z,102965.72
2023-05-25T12:40:21.182Z,102968.34
2023-05-25T12:43:07.063Z,102965.41
2023-05-25T12:45:52.648Z,102970.50
2023-05-25T12:48:38.158Z,102971.31
2023-05-25T12:51:23.593Z,102970.47
2023-05-25T12:54:09.273Z,102970.44
2023-05-25T12:56:56.829Z,102979.47
2023-05-25T12:59:46.338Z,102967.75
2023-05-25T13:02:32.416Z,102970.88
2023-05-25T13:05:23.178Z,102971.16
2023-05-25T13:08:09.059Z,102958.38
2023-05-25T13:10:54.470Z,102957.41
2023-05-25T13:13:39.765Z,102959.28
2023-05-25T13:16:26.067Z,102954.88
2023-05-25T13:19:11.859Z,102954.13
2023-05-25T13:21:57.928Z,102945.88
2023-05-25T13:24:43.187Z,102952.72
2023-05-25T13:27:28.697Z,102956.19
2023-05-25T13:30:14.764Z,102950.31
2023-05-25T13:33:00.470Z,102944.59
2023-05-25T13:35:57.863Z,102946.97
2023-05-25T13:38:43.393Z,102950.25
2023-05-25T13:41:28.976Z,102947.47
2023-05-25T13:44:16.486Z,102943.16
2023-05-25T13:47:03.147Z,102951.72
2023-05-25T13:49:49.108Z,102945.56
2023-05-25T13:52:34.333Z,102946.72
2023-05-25T13:55:19.911Z,102951.31
2023-05-25T13:58:06.062Z,102948.81
2023-05-25T14:00:51.618Z,102946.81
2023-05-25T14:03:37.732Z,102948.03
2023-05-25T14:06:23.516Z,102951.75
2023-05-25T14:09:10.244Z,102951.19
2023-05-25T14:11:56.417Z,102952.47
2023-05-25T14:14:41.685Z,102946.63
2023-05-25T14:17:27.279Z,102943.72
2023-05-25T14:20:16.202Z,102946.81
2023-05-25T14:23:01.979Z,102935.94
2023-05-25T14:25:48.856Z,102942.59
2023-05-25T14:28:34.240Z,102936.09
2023-05-25T14:31:20.058Z,102940.19
2023-05-25T14:34:05.329Z,102942.78
2023-05-25T14:36:50.755Z,102932.19
2023-05-25T14:39:38.939Z,102940.09
2023-05-25T14:42:24.612Z,102940.06
2023-05-25T14:45:12.063Z,102929.53
2023-05-25T14:48:08.315Z,102935.06
2023-05-25T14:51:02.844Z,102935.19
2023-05-25T14:53:48.476Z,102935.19
2023-05-25T14:56:34.324Z,102932.75
2023-05-25T14:59:19.670Z,102933.03
2023-05-25T15:02:05.382Z,102929.31
2023-05-25T15:04:51.119Z,102929.13
2023-05-25T15:07:36.382Z,102930.25
2023-05-25T15:10:21.861Z,102941.19
2023-05-25T15:13:07.358Z,102934.44
2023-05-25T15:15:56.153Z,102931.97
2023-05-25T15:18:42.194Z,102935.84
2023-05-25T15:21:27.884Z,102929.34
2023-05-25T15:24:16.713Z,102938.53
2023-05-25T15:27:02.932Z,102944.81
2023-05-25T15:29:48.503Z,102933.28
2023-05-25T15:32:34.425Z,102936.31
2023-05-25T15:35:20.013Z,102929.13
2023-05-25T15:38:05.587Z,102926.41
2023-05-25T15:40:50.926Z,102918.44
2023-05-25T15:43:36.299Z,102926.22
2023-05-25T15:46:21.708Z,102930.75
2023-05-25T15:49:11.493Z,102932.13
2023-05-25T15:51:57.335Z,102931.22
2023-05-25T15:54:42.770Z,102933.50
2023-05-25T15:57:28.221Z,102942.13
2023-05-25T16:00:14.292Z,102931.13
2023-05-25T16:03:00.316Z,102930.56
2023-05-25T16:05:46.182Z,102933.81
2023-05-25T16:08:31.647Z,102928.31
2023-05-25T16:11:17.045Z,102920.91
2023-05-25T16:14:02.373Z,102926.50
2023-05-25T16:16:47.605Z,102925.91
2023-05-25T16:19:33.335Z,102922.50
2023-05-25T16:22:19.381Z,102918.25
2023-05-25T16:25:05.181Z,102925.47
2023-05-25T16:27:50.776Z,102933.56
2023-05-25T16:30:36.251Z,102931.22
2023-05-25T16:33:21.635Z,102928.84
2023-05-25T16:36:07.209Z,102929.09
2023-05-25T16:38:52.914Z,102927.44
2023-05-25T16:41:38.528Z,102928.41
2023-05-25T16:44:23.984Z,102932.06
2023-05-25T16:47:09.820Z,102934.84
2023-05-25T16:49:55.168Z,102932.28
2023-05-25T16:52:40.834Z,102937.66
2023-05-25T16:55:26.715Z,102935.94
2023-05-25T16:58:12.141Z,102947.47
2023-05-25T17:00:57.426Z,102940.41
2023-05-25T17:03:42.963Z,102955.50
2023-05-25T17:06:28.952Z,102956.41
2023-05-25T17:09:14.427Z,102945.91
2023-05-25T17:12:01.760Z,102958.31
2023-05-25T17:14:47.363Z,102957.47
2023-05-25T17:17:32.667Z,102957.47
2023-05-25T17:20:18.092Z,102954.00
2023-05-25T17:23:04.096Z,102954.00
2023-05-25T17:25:49.741Z,102956.63
2023-05-25T17:28:35.466Z,102952.22
2023-05-25T17:31:20.913Z,102946.88
2023-05-25T17:34:06.536Z,102956.56
2023-05-25T17:36:53.129Z,102950.38
2023-05-25T17:39:38.561Z,102960.94
2023-05-25T17:42:24.035Z,102959.22
2023-05-25T17:45:11.772Z,102962.75
2023-05-25T17:47:58.455Z,102957.47
2023-05-25T17:50:44.012Z,102954.81
2023-05-25T17:53:29.387Z,102958.38
2023-05-25T17:56:14.800Z,102953.94
2023-05-25T17:59:00.677Z,102962.78
2023-05-25T18:01:46.178Z,102953.09
2023-05-25T18:04:31.667Z,102961.03
2023-05-25T18:07:17.146Z,102961.03
2023-05-25T18:10:02.466Z,102968.97
2023-05-25T18:12:49.381Z,102968.09
2023-05-25T18:15:34.735Z,102965.44
2023-05-25T18:18:23.258Z,102963.66
2023-05-25T18:21:08.701Z,102953.06
2023-05-25T18:23:53.929Z,102960.94
2023-05-25T18:26:41.711Z,102957.31
2023-05-25T18:29:27.503Z,102956.38
2023-05-25T18:32:12.977Z,102959.84
2023-05-25T18:34:58.622Z,102964.19
2023-05-25T18:37:43.911Z,102966.78
2023-05-25T18:40:29.632Z,102972.81
2023-05-25T18:43:14.943Z,102967.44
2023-05-25T18:46:00.288Z,102973.53
2023-05-25T18:48:46.430Z,102968.16
2023-05-25T18:51:32.037Z,102971.59
2023-05-25T18:54:17.651Z,102971.53
2023-05-25T18:57:03.180Z,102960.03
2023-05-25T18:59:48.426Z,102957.34
2023-05-25T19:02:36.320Z,102957.25
2023-05-25T19:05:22.628Z,102961.59
2023-05-25T19:08:07.917Z,102957.97
2023-05-25T19:10:53.341Z,102968.44
2023-05-25T19:13:38.625Z,102967.50
2023-05-25T19:16:24.156Z,102976.22
2023-05-25T19:19:09.873Z,102975.31
2023-05-25T19:21:55.187Z,102984.84
2023-05-25T19:24:42.635Z,102979.53
2023-05-25T19:27:29.882Z,102982.13
2023-05-25T19:30:15.653Z,102983.81
2023-05-25T19:33:01.404Z,102985.53
2023-05-25T19:35:47.622Z,102976.66
2023-05-25T19:38:41.357Z,102981.88
2023-05-25T19:41:27.864Z,102987.00
2023-05-25T19:44:13.645Z,102992.22
2023-05-25T19:46:59.969Z,102991.31
2023-05-25T19:49:46.007Z,102996.50
2023-05-25T19:52:31.780Z,102993.81
2023-05-25T19:55:17.144Z,102991.97
2023-05-25T19:58:02.434Z,102999.81
2023-05-25T20:00:47.875Z,102998.00
2023-05-25T20:03:33.583Z,102996.13
2023-05-25T20:06:19.415Z,102990.84
2023-05-25T20:09:06.092Z,102992.56
2023-05-25T20:11:51.870Z,102996.84
2023-05-25T20:14:37.233Z,103004.69
2023-05-25T20:17:23.038Z,103000.22
2023-05-25T20:20:08.910Z,103006.25
2023-05-25T20:22:54.425Z,103001.78
2023-05-25T20:25:39.782Z,103003.50
2023-05-25T20:28:25.112Z,102998.19
2023-05-25T20:31:10.573Z,103006.06
2023-05-25T20:33:56.078Z,102999.88
2023-05-25T20:36:41.252Z,103004.25
2023-05-25T20:39:27.106Z,103006.81
2023-05-25T20:42:14.119Z,103010.31
2023-05-25T20:44:59.729Z,103011.16
2023-05-25T20:47:45.173Z,103015.50
2023-05-25T20:50:31.149Z,103012.84
2023-05-25T20:53:16.802Z,103014.53
2023-05-25T20:56:02.791Z,103013.66
2023-05-25T20:58:48.053Z,103013.63
2023-05-25T21:01:33.495Z,103017.97
2023-05-25T21:04:20.150Z,103022.34
2023-05-25T21:07:05.976Z,103024.97
2023-05-25T21:09:51.639Z,103025.81
2023-05-25T21:12:37.428Z,103021.44
2023-05-25T21:15:22.818Z,103024.91
2023-05-25T21:18:09.940Z,103029.28
2023-05-25T21:20:55.351Z,103027.53
2023-05-25T21:23:40.756Z,103031.03
2023-05-25T21:26:26.454Z,103031.94
2023-05-25T21:29:11.952Z,103032.81
2023-05-25T21:31:59.572Z,103029.28
2023-05-25T21:34:44.953Z,103025.75
2023-05-25T21:37:30.347Z,103027.53
2023-05-25T21:40:15.785Z,103029.31
2023-05-25T21:43:01.487Z,103022.25
2023-05-25T21:45:47.615Z,103024.88
2023-05-25T21:48:32.949Z,103019.59
2023-05-25T21:51:18.588Z,103016.91
2023-05-25T21:54:04.127Z,103015.06
2023-05-25T21:56:49.351Z,103020.34
2023-05-25T21:59:34.700Z,103020.34
2023-05-25T22:02:20.394Z,103029.09
2023-05-25T22:05:06.126Z,103024.75
2023-05-25T22:07:53.559Z,103022.13
2023-05-25T22:10:40.581Z,103016.91
2023-05-25T22:13:26.086Z,103016.94
2023-05-25T22:16:11.764Z,103023.94
2023-05-25T22:18:57.741Z,103007.34
2023-05-25T22:21:43.078Z,103010.91
2023-05-25T22:24:28.349Z,103016.22
2023-05-25T22:27:13.912Z,103013.59
2023-05-25T22:29:59.494Z,103017.97
2023-05-25T22:32:44.928Z,103017.09
2023-05-25T22:35:30.265Z,103017.06
2023-05-25T22:38:15.825Z,103012.66
2023-05-25T22:41:01.213Z,103016.16
2023-05-25T22:43:46.984Z,103018.78
2023-05-25T22:46:32.360Z,103011.72
2023-05-25T22:49:17.990Z,103012.56
2023-05-25T22:52:03.870Z,103018.59
2023-05-25T22:54:49.529Z,103010.72
2023-05-25T22:57:35.451Z,103008.88
2023-05-25T23:00:20.975Z,103010.63
2023-05-25T23:03:06.599Z,103013.25
2023-05-25T23:05:52.244Z,103009.69
2023-05-25T23:08:37.690Z,103010.50
2023-05-25T23:11:22.948Z,103022.75
2023-05-25T23:14:08.476Z,103021.88
2023-05-25T23:16:53.966Z,103015.78
2023-05-25T23:19:40.430Z,103014.84
2023-05-25T23:22:26.228Z,103013.97
2023-05-25T23:25:11.550Z,103018.38
2023-05-25T23:27:56.933Z,103026.22
2023-05-25T23:30:42.302Z,103029.69
2023-05-25T23:33:29.324Z,103041.06
2023-05-25T23:36:15.247Z,103033.97
2023-05-25T23:39:01.102Z,103034.84
2023-05-25T23:41:46.724Z,103038.25
2023-05-25T23:44:32.107Z,103041.66
2023-05-25T23:47:17.890Z,103034.50
2023-05-25T23:50:03.402Z,103029.16
2023-05-25T23:52:49.077Z,103029.94
2023-05-25T23:55:34.664Z,103029.78
2023-05-25T23:58:20.077Z,103032.41
